createdAt,value
2023-05-18T00:01:55.331Z,100718.60
2023-05-18T00:04:34.561Z,100718.60
2023-05-18T00:07:15.386Z,100713.60
2023-05-18T00:09:54.827Z,100709.80
2023-05-18T00:12:34.049Z,100712.60
2023-05-18T00:15:15.531Z,100708.40
2023-05-18T00:17:53.842Z,100706.60
2023-05-18T00:20:31.668Z,100709.00
2023-05-18T00:23:17.202Z,100708.00
2023-05-18T00:25:55.944Z,100705.40
2023-05-18T00:28:34.321Z,100709.80
2023-05-18T00:31:14.225Z,100709.60
2023-05-18T00:33:55.158Z,100710.00
2023-05-18T00:36:34.740Z,100708.40
2023-05-18T00:39:14.329Z,100706.80
2023-05-18T00:41:55.528Z,100707.60
2023-05-18T00:44:36.487Z,100706.00
2023-05-18T00:47:19.101Z,100708.00
2023-05-18T00:49:58.626Z,100708.80
2023-05-18T00:52:38.499Z,100709.20
2023-05-18T00:55:18.466Z,100709.80
2023-05-18T00:58:00.440Z,100712.40
2023-05-18T01:00:43.737Z,100710.00
2023-05-18T01:03:24.305Z,100711.20
2023-05-18T01:06:06.439Z,100709.80
2023-05-18T01:08:48.164Z,100713.80
2023-05-18T01:11:44.573Z,100712.00
2023-05-18T01:14:35.017Z,100713.20
2023-05-18T01:17:25.068Z,100715.80
2023-05-18T01:20:33.981Z,100717.00
2023-05-18T01:23:49.152Z,100713.40
2023-05-18T01:26:33.197Z,100716.40
2023-05-18T01:29:16.712Z,100714.40
2023-05-18T01:31:53.881Z,100714.20
2023-05-18T01:34:36.525Z,100708.60
2023-05-18T01:37:17.205Z,100710.60
2023-05-18T01:40:00.828Z,100713.00
2023-05-18T01:42:47.436Z,100715.40
2023-05-18T01:45:36.875Z,100713.20
2023-05-18T01:48:21.284Z,100708.80
2023-05-18T01:51:04.119Z,100706.40
2023-05-18T01:53:57.445Z,100706.60
2023-05-18T01:56:42.832Z,100711.20
2023-05-18T01:59:24.921Z,100705.20
2023-05-18T02:02:09.504Z,100707.40
2023-05-18T02:04:50.468Z,100701.20
2023-05-18T02:07:32.568Z,100697.40
2023-05-18T02:10:19.481Z,100697.20
2023-05-18T02:13:01.485Z,100696.20
2023-05-18T02:15:43.177Z,100698.60
2023-05-18T02:18:27.701Z,100702.20
2023-05-18T02:21:10.530Z,100703.60
2023-05-18T02:23:51.385Z,100701.60
2023-05-18T02:26:32.258Z,100703.40
2023-05-18T02:29:12.418Z,100703.00
2023-05-18T02:31:52.019Z,100706.80
2023-05-18T02:34:33.844Z,100706.40
2023-05-18T02:37:14.000Z,100704.00
